Alix, Arkansas
Current Conditions -  °F | °C
As of 2:53 PM on Friday 31 Oct 2014 (Local Time) from KFSM Reporting Station
Clear Clear  
Wind Chill: 61°   Ceiling: Unl
Heat Index: 61°   Visibility: 10mi
Dew Point: 33°   Wind: 15mph
Humidity: 35%   Direction: 330°NNW
Pressure: 30.29"   Gusts: NA
Location:  35.43°N, 93.73°W
Report Text: KFSM 311953Z AUTO 33013KT 10SM CLR 16/01 A3029 RMK AO2 SLP255 T01610006 TSNO
Loading
Personal Weather Stations






























Interactive Weather Map
Tropical Storm Tracking
New forecast layout! Learn more

10-Day Weather Forecast

Advertisements
Track Severe Weather on mobile